Time;durP1;ratioP1;P1;durP2;ratioP2;P2;SDS_P1;SDS_P2;PMS_P1;PMS_P2;Temp;Humidity;BMP_temperature;BMP_pressure;BME280_temperature;BME280_humidity;BME280_pressure;Samples;Min_cycle;Max_cycle;Signal;HPM_P1;HPM_P2
2022/06/25 00:02:34;;;;;;;;;11.75;11.50;;;;;24.66;56.26;100773.75;146631;569;45010;-68
2022/06/25 00:05:28;;;;;;;;;13.00;12.75;;;;;24.60;56.11;100763.16;146632;571;45018;-65
2022/06/25 00:08:20;;;;;;;;;14.50;14.50;;;;;24.56;55.61;100764.97;146631;596;45018;-68
2022/06/25 00:14:22;;;;;;;;;12.75;11.25;;;;;24.57;55.21;100760.53;146615;700;46008;-69
2022/06/25 00:17:14;;;;;;;;;11.25;11.25;;;;;24.55;55.27;100759.66;146609;731;46018;-69
2022/06/25 00:20:08;;;;;;;;;13.50;11.50;;;;;24.52;55.33;100763.22;146613;568;46008;-70
2022/06/25 00:23:00;;;;;;;;;12.50;11.75;;;;;24.53;54.61;100767.62;146613;634;46010;-70
2022/06/25 00:25:52;;;;;;;;;10.25;9.25;;;;;24.57;55.18;100763.19;146609;563;46010;-69
2022/06/25 00:28:44;;;;;;;;;16.00;12.50;;;;;24.65;54.76;100766.69;146612;597;46010;-72
2022/06/25 00:31:36;;;;;;;;;13.75;11.75;;;;;24.75;54.45;100762.19;146610;687;46008;-74
2022/06/25 00:34:28;;;;;;;;;11.75;11.75;;;;;24.80;53.77;100768.38;146612;576;46010;-73
2022/06/25 00:37:21;;;;;;;;;13.00;10.75;;;;;24.85;53.38;100767.41;146610;606;45923;-74
2022/06/25 00:40:14;;;;;;;;;11.50;11.25;;;;;24.88;53.26;100762.09;146611;641;46018;-74
2022/06/25 00:43:06;;;;;;;;;13.00;12.00;;;;;24.88;53.48;100770.06;146617;579;46019;-74
2022/06/25 00:45:58;;;;;;;;;11.75;11.75;;;;;24.87;54.16;100778.91;146608;564;46026;-74
2022/06/25 00:48:50;;;;;;;;;11.50;11.25;;;;;24.84;54.76;100781.59;146612;672;46019;-75
2022/06/25 00:51:44;;;;;;;;;16.50;14.75;;;;;24.79;54.83;100774.53;146610;582;46010;-74
2022/06/25 00:54:42;;;;;;;;;15.00;15.00;;;;;24.74;54.06;100771.94;146606;571;46026;-74
2022/06/25 00:57:37;;;;;;;;;13.50;12.25;;;;;24.72;54.02;100760.44;146611;715;46018;-73
2022/06/25 01:00:29;;;;;;;;;13.25;11.25;;;;;24.71;53.99;100763.13;146610;687;46018;-73
2022/06/25 01:03:21;;;;;;;;;12.00;11.25;;;;;24.70;52.88;100750.72;146610;645;46018;-70
2022/06/25 01:06:14;;;;;;;;;12.50;12.50;;;;;24.69;53.18;100748.97;146614;564;46009;-68
2022/06/25 01:09:06;;;;;;;;;12.00;11.25;;;;;24.68;53.00;100750.75;146614;571;46010;-69
2022/06/25 01:11:59;;;;;;;;;15.75;13.50;;;;;24.63;52.61;100748.13;146610;586;46010;-68
2022/06/25 01:15:03;;;;;;;;;15.00;14.25;;;;;24.58;52.93;100739.34;146610;563;46010;-69
2022/06/25 01:17:56;;;;;;;;;14.50;12.75;;;;;24.56;52.67;100740.22;146616;645;46018;-68
2022/06/25 01:20:48;;;;;;;;;11.25;11.25;;;;;24.57;53.28;100740.19;146607;569;46019;-69
2022/06/25 01:23:41;;;;;;;;;12.50;10.00;;;;;24.60;52.72;100739.31;146612;615;46018;-69
2022/06/25 01:26:37;;;;;;;;;12.75;11.25;;;;;24.56;52.81;100734.91;146613;577;46011;-69
2022/06/25 01:29:29;;;;;;;;;13.75;11.00;;;;;24.52;53.24;100741.13;146613;648;46008;-69
2022/06/25 01:32:22;;;;;;;;;14.75;13.50;;;;;24.51;53.78;100744.66;146609;575;46018;-69
2022/06/25 01:35:14;;;;;;;;;9.50;9.00;;;;;24.50;53.93;100734.97;146614;628;46018;-69
2022/06/25 01:38:07;;;;;;;;;14.00;13.00;;;;;24.50;54.39;100737.59;146612;571;46012;-70
2022/06/25 01:40:59;;;;;;;;;11.25;11.25;;;;;24.45;55.38;100731.44;146609;584;46018;-70
2022/06/25 01:43:51;;;;;;;;;13.25;11.75;;;;;24.40;55.79;100727.03;146612;564;46019;-69
2022/06/25 01:46:43;;;;;;;;;14.25;12.00;;;;;24.35;56.24;100719.97;146607;619;46010;-67
2022/06/25 01:49:35;;;;;;;;;17.25;13.00;;;;;24.35;56.58;100720.84;146610;569;46019;-69
2022/06/25 01:52:27;;;;;;;;;12.50;12.50;;;;;24.40;56.64;100723.50;146612;632;46018;-67
2022/06/25 01:55:20;;;;;;;;;16.25;13.00;;;;;24.41;56.09;100718.22;146606;722;46018;-67
2022/06/25 01:58:12;;;;;;;;;12.50;12.50;;;;;24.43;56.45;100729.69;146611;576;46018;-68
2022/06/25 02:01:05;;;;;;;;;13.25;11.50;;;;;24.49;56.17;100725.25;146607;663;46018;-67
2022/06/25 02:03:57;;;;;;;;;12.00;11.50;;;;;24.48;55.26;100734.06;146612;679;46019;-67
2022/06/25 02:06:49;;;;;;;;;13.75;13.75;;;;;24.43;54.83;100742.94;146617;642;45047;-66
2022/06/25 02:09:41;;;;;;;;;12.50;10.50;;;;;24.34;54.86;100748.25;146612;605;46018;-66
2022/06/25 02:12:32;;;;;;;;;10.50;10.50;;;;;24.28;54.99;100750.06;146614;717;46011;-67
2022/06/25 02:15:25;;;;;;;;;13.50;12.25;;;;;24.15;55.33;100741.28;146615;626;46008;-68
2022/06/25 02:18:17;;;;;;;;;11.75;11.00;;;;;24.04;55.45;100743.97;146619;565;46010;-67
2022/06/25 02:21:09;;;;;;;;;14.50;12.00;;;;;23.98;55.58;100744.84;146611;571;46018;-67
2022/06/25 02:24:01;;;;;;;;;13.00;12.50;;;;;23.93;55.72;100748.44;146612;571;46010;-69
2022/06/25 02:26:54;;;;;;;;;14.00;13.50;;;;;23.85;55.86;100740.50;146612;599;46019;-67
2022/06/25 02:29:46;;;;;;;;;13.75;12.00;;;;;22.23;56.07;100469.19;146606;599;46018;-68
2022/06/25 02:32:38;;;;;;;;;10.25;10.25;;;;;23.78;56.82;100735.22;146613;596;46008;-67
2022/06/25 02:35:30;;;;;;;;;14.25;12.00;;;;;23.73;57.19;100737.88;146613;679;46010;-68
2022/06/25 02:38:22;;;;;;;;;12.25;11.50;;;;;23.70;57.36;100725.53;146608;600;45923;-67
2022/06/25 02:41:14;;;;;;;;;14.25;12.75;;;;;23.72;57.36;100729.06;146606;564;46011;-68
2022/06/25 02:44:07;;;;;;;;;14.00;12.25;;;;;23.76;57.45;100737.00;146611;577;45923;-69
2022/06/25 02:46:59;;;;;;;;;14.25;13.75;;;;;22.91;57.60;100588.94;146608;567;46010;-69
2022/06/25 02:49:51;;;;;;;;;12.25;12.25;;;;;23.79;57.84;100750.22;146613;684;46009;-69
2022/06/25 02:52:43;;;;;;;;;13.00;12.75;;;;;23.70;57.62;100757.28;146606;666;46038;-66
2022/06/25 02:58:58;;;;;;;;;13.00;12.00;;;;;23.57;57.98;100754.66;146608;570;46010;-67
2022/06/25 03:01:50;;;;;;;;;15.25;14.00;;;;;23.49;58.44;100744.97;146609;575;46018;-67
2022/06/25 03:04:42;;;;;;;;;13.50;11.50;;;;;23.48;58.59;100752.88;146606;644;46018;-67
2022/06/25 03:07:35;;;;;;;;;14.50;14.25;;;;;23.50;59.10;100756.44;146612;733;46008;-67
2022/06/25 03:10:27;;;;;;;;;15.25;11.00;;;;;23.54;59.07;100754.66;146610;609;46018;-67
2022/06/25 03:13:19;;;;;;;;;13.00;13.00;;;;;23.59;59.23;100760.84;146611;572;46018;-69
2022/06/25 03:16:11;;;;;;;;;15.00;15.00;;;;;23.60;59.28;100757.28;146611;622;46018;-68
2022/06/25 03:19:03;;;;;;;;;15.25;12.00;;;;;23.62;59.74;100751.12;146609;635;46010;-67
2022/06/25 03:21:56;;;;;;;;;15.00;12.50;;;;;23.64;59.19;100753.75;146613;600;46010;-67
2022/06/25 03:24:48;;;;;;;;;19.00;14.25;;;;;23.68;59.17;100758.16;146609;671;46008;-68
2022/06/25 03:27:40;;;;;;;;;14.25;14.25;;;;;23.74;59.58;100766.13;146611;612;46010;-69
2022/06/25 03:30:33;;;;;;;;;13.75;13.00;;;;;23.80;59.83;100763.47;146610;624;46018;-68
2022/06/25 03:33:25;;;;;;;;;14.75;14.75;;;;;23.84;60.09;100759.06;146613;565;46011;-68
2022/06/25 03:36:17;;;;;;;;;12.50;10.50;;;;;23.87;60.37;100762.56;146609;688;46018;-68
2022/06/25 03:39:09;;;;;;;;;13.25;12.25;;;;;23.89;59.92;100774.00;146610;690;46013;-67
2022/06/25 03:42:01;;;;;;;;;12.00;11.75;;;;;23.94;59.97;100776.66;146611;579;46008;-68
2022/06/25 03:44:53;;;;;;;;;16.25;14.50;;;;;24.01;59.77;100777.53;146612;647;46010;-67
2022/06/25 03:47:50;;;;;;;;;14.50;13.25;;;;;24.05;59.84;100773.97;146608;699;46923;-67
2022/06/25 03:50:41;;;;;;;;;17.25;13.75;;;;;24.09;59.55;100776.63;146608;729;46020;-68
2022/06/25 03:53:33;;;;;;;;;12.75;12.25;;;;;24.06;60.52;100768.69;146612;598;45018;-69
2022/06/25 03:56:26;;;;;;;;;13.50;13.50;;;;;24.01;59.66;100765.16;146611;584;46012;-68
2022/06/25 03:59:18;;;;;;;;;15.25;13.00;;;;;24.01;59.10;100761.63;146612;616;46008;-67
2022/06/25 04:02:10;;;;;;;;;15.50;13.00;;;;;24.02;59.07;100756.34;146612;598;46019;-68
2022/06/25 04:05:03;;;;;;;;;13.00;11.50;;;;;24.06;58.71;100754.56;146611;654;46923;-67
2022/06/25 04:07:55;;;;;;;;;13.00;12.00;;;;;24.12;58.58;100752.78;146612;628;46010;-67
2022/06/25 04:10:48;;;;;;;;;15.75;14.25;;;;;24.23;58.24;100754.47;146606;590;46019;-69
2022/06/25 04:13:40;;;;;;;;;15.00;12.75;;;;;24.37;58.41;100752.66;146606;713;46018;-69
2022/06/25 04:16:32;;;;;;;;;12.00;11.00;;;;;24.56;58.12;100753.47;146613;694;46019;-70
2022/06/25 04:19:24;;;;;;;;;13.50;11.00;;;;;24.72;57.59;100747.19;146606;607;46010;-70
2022/06/25 04:22:16;;;;;;;;;13.25;13.00;;;;;24.84;56.85;100757.72;146612;601;46018;-70
2022/06/25 04:25:09;;;;;;;;;11.75;10.75;;;;;24.94;57.21;100750.56;146616;690;46010;-71
2022/06/25 04:31:11;;;;;;;;;13.75;11.25;;;;;25.35;55.53;100767.97;146614;679;46010;-68
2022/06/25 04:34:04;;;;;;;;;12.50;11.50;;;;;25.48;55.76;100764.31;146612;624;46008;-68
2022/06/25 04:36:56;;;;;;;;;11.75;11.00;;;;;25.61;55.34;100759.75;146615;618;46020;-70
2022/06/25 04:39:48;;;;;;;;;13.00;11.75;;;;;25.73;55.47;100764.03;146606;673;47923;-70
2022/06/25 04:42:40;;;;;;;;;16.00;13.50;;;;;25.89;55.61;100765.69;146609;692;46018;-71
2022/06/25 04:45:32;;;;;;;;;15.75;14.00;;;;;26.07;55.14;100769.91;146611;583;46019;-72
2022/06/25 04:48:24;;;;;;;;;15.50;14.00;;;;;26.24;54.39;100765.28;146610;740;46010;-71
2022/06/25 04:51:17;;;;;;;;;14.00;12.00;;;;;26.44;53.80;100778.28;146608;573;46018;-69
2022/06/25 04:54:08;;;;;;;;;17.50;16.00;;;;;26.62;53.54;100774.53;146607;566;46019;-69
2022/06/25 04:57:01;;;;;;;;;14.25;14.25;;;;;26.78;52.80;100771.66;146610;566;46008;-68
2022/06/25 04:59:52;;;;;;;;;16.00;14.75;;;;;26.90;53.70;100777.69;146610;607;46010;-68
2022/06/25 05:02:45;;;;;;;;;14.75;11.75;;;;;27.00;53.62;100777.53;146609;657;46018;-68
2022/06/25 05:05:37;;;;;;;;;18.75;17.50;;;;;27.14;53.36;100771.12;146609;615;46018;-69
2022/06/25 05:08:29;;;;;;;;;15.25;13.25;;;;;27.31;53.11;100777.94;146608;616;46018;-69
2022/06/25 05:11:21;;;;;;;;;14.25;13.00;;;;;27.44;52.85;100766.16;146611;598;46010;-68
2022/06/25 05:14:13;;;;;;;;;18.25;16.25;;;;;27.55;52.92;100761.56;146612;629;45018;-69
2022/06/25 05:17:05;;;;;;;;;16.75;14.75;;;;;27.59;53.09;100746.38;146610;657;46010;-68
2022/06/25 05:19:58;;;;;;;;;17.25;14.75;;;;;27.69;53.86;100752.41;146608;611;46018;-69
2022/06/25 05:22:50;;;;;;;;;15.25;12.75;;;;;27.77;53.72;100758.50;146611;576;46010;-69
2022/06/25 05:25:43;;;;;;;;;14.50;13.50;;;;;27.84;54.05;100745.03;146605;647;47018;-69
2022/06/25 05:28:36;;;;;;;;;17.50;16.25;;;;;27.17;52.79;100605.19;146606;591;46010;-69
2022/06/25 05:31:28;;;;;;;;;13.50;12.75;;;;;28.22;53.01;100758.50;146608;571;46008;-69
2022/06/25 05:34:19;;;;;;;;;18.25;17.25;;;;;28.37;52.74;100752.84;146609;625;45018;-69
2022/06/25 05:37:12;;;;;;;;;17.75;16.25;;;;;28.52;52.56;100757.88;146612;585;45018;-68
2022/06/25 05:40:03;;;;;;;;;18.50;16.25;;;;;28.63;52.47;100762.97;146608;591;46019;-71
2022/06/25 05:42:56;;;;;;;;;13.75;12.75;;;;;28.72;52.24;100744.09;146607;562;46010;-69
2022/06/25 05:45:47;;;;;;;;;13.75;12.00;;;;;28.76;52.08;100748.44;146606;620;46019;-69
2022/06/25 05:48:40;;;;;;;;;19.50;14.00;;;;;28.88;52.12;100747.28;146608;691;46018;-69
2022/06/25 05:51:32;;;;;;;;;21.00;19.25;;;;;28.96;51.72;100749.75;146612;563;45018;-69
2022/06/25 05:54:24;;;;;;;;;15.75;14.50;;;;;28.97;52.04;100752.37;146606;583;46019;-70
2022/06/25 05:57:16;;;;;;;;;18.50;15.25;;;;;29.00;51.79;100756.75;146609;582;46018;-69
2022/06/25 06:00:10;;;;;;;;;17.00;17.00;;;;;29.02;51.96;100759.44;146606;629;46009;-68
2022/06/25 06:03:02;;;;;;;;;17.50;16.75;;;;;29.01;52.19;100766.56;146606;608;46019;-67
2022/06/25 06:05:54;;;;;;;;;17.50;16.25;;;;;28.98;51.84;100775.47;146608;606;46018;-70
2022/06/25 06:08:45;;;;;;;;;16.25;15.50;;;;;29.00;52.90;100770.09;146610;640;45019;-68
2022/06/25 06:11:38;;;;;;;;;13.25;12.00;;;;;29.01;52.44;100771.91;146607;569;46018;-70
2022/06/25 06:14:30;;;;;;;;;13.25;13.25;;;;;29.01;52.12;100777.25;146606;583;46021;-70
2022/06/25 06:17:22;;;;;;;;;15.75;15.25;;;;;29.01;52.37;100771.91;146606;624;46018;-71
2022/06/25 06:20:14;;;;;;;;;15.00;14.00;;;;;29.13;51.67;100765.34;146609;672;46010;-71
2022/06/25 06:23:07;;;;;;;;;15.50;14.00;;;;;29.28;50.55;100773.00;146613;590;46019;-71
2022/06/25 06:25:59;;;;;;;;;16.00;14.50;;;;;29.40;48.81;100763.78;146614;565;45039;-70
2022/06/25 06:28:51;;;;;;;;;15.25;12.25;;;;;29.51;49.19;100766.19;146612;698;46008;-71
2022/06/25 06:31:43;;;;;;;;;14.00;13.00;;;;;29.62;48.33;100764.12;146610;624;46010;-70
2022/06/25 06:34:35;;;;;;;;;12.75;12.75;;;;;29.67;47.70;100760.44;146610;621;46018;-73
2022/06/25 06:37:27;;;;;;;;;15.75;14.00;;;;;29.71;47.61;100763.00;146611;571;46010;-75
2022/06/25 06:40:19;;;;;;;;;18.50;15.25;;;;;29.83;46.93;100757.34;146604;566;46018;-74
2022/06/25 06:43:11;;;;;;;;;28.75;22.75;;;;;29.93;47.24;100749.00;146608;588;46010;-74
2022/06/25 06:46:03;;;;;;;;;18.75;16.25;;;;;30.07;47.59;100747.75;146607;622;46019;-74
2022/06/25 06:48:55;;;;;;;;;19.25;18.25;;;;;30.27;47.76;100745.37;146606;565;46018;-74
2022/06/25 06:51:47;;;;;;;;;15.50;14.25;;;;;30.49;46.34;100728.66;146607;590;46019;-74
2022/06/25 06:54:40;;;;;;;;;13.75;13.00;;;;;30.71;45.33;100737.75;146610;607;46010;-74
2022/06/25 06:57:33;;;;;;;;;15.75;13.75;;;;;30.89;44.14;100725.63;146609;588;46008;-74
2022/06/25 07:00:25;;;;;;;;;17.00;15.00;;;;;30.97;44.00;100723.59;146608;687;46010;-73
2022/06/25 07:03:17;;;;;;;;;18.25;17.00;;;;;30.99;44.66;100728.87;146608;691;46018;-74
2022/06/25 07:06:09;;;;;;;;;19.00;15.00;;;;;31.11;45.37;100716.88;146607;563;46012;-73
2022/06/25 07:09:01;;;;;;;;;14.25;13.75;;;;;31.20;44.86;100714.75;146605;595;46019;-74
2022/06/25 07:11:53;;;;;;;;;18.75;15.75;;;;;31.22;45.83;100722.75;146607;614;46010;-73
2022/06/25 07:14:46;;;;;;;;;19.00;16.50;;;;;31.25;46.11;100710.12;146605;591;46018;-73
2022/06/25 07:17:37;;;;;;;;;18.75;15.75;;;;;31.35;46.11;100717.88;146610;589;45019;-73
2022/06/25 07:20:29;;;;;;;;;18.25;15.75;;;;;31.41;45.79;100718.53;146609;563;46008;-73
2022/06/25 07:23:22;;;;;;;;;15.00;13.75;;;;;31.49;46.16;100715.56;146611;583;46010;-73
2022/06/25 07:26:14;;;;;;;;;17.50;15.25;;;;;31.49;45.52;100710.22;146607;563;46008;-72
2022/06/25 07:29:06;;;;;;;;;15.75;14.50;;;;;31.48;45.38;100706.66;146610;614;46013;-73
2022/06/25 07:31:58;;;;;;;;;17.00;15.25;;;;;31.49;45.02;100699.50;146606;644;46008;-72
2022/06/25 07:34:50;;;;;;;;;19.25;18.00;;;;;31.50;45.42;100696.78;146611;589;46010;-72
2022/06/25 07:37:43;;;;;;;;;16.00;14.75;;;;;31.55;44.62;100693.03;146608;565;46010;-73
2022/06/25 07:40:35;;;;;;;;;14.75;14.75;;;;;31.52;45.77;100692.22;146607;569;46012;-73
2022/06/25 07:43:27;;;;;;;;;15.00;13.75;;;;;31.58;45.79;100685.75;146608;657;45923;-72
2022/06/25 07:46:19;;;;;;;;;19.75;16.50;;;;;31.74;44.55;100688.75;146607;583;46012;-75
2022/06/25 07:49:11;;;;;;;;;14.50;13.25;;;;;31.88;46.74;100696.28;146609;601;45020;-74
2022/06/25 07:52:04;;;;;;;;;19.00;14.75;;;;;31.95;45.99;100689.78;146611;667;46010;-72
2022/06/25 07:54:56;;;;;;;;;18.00;18.00;;;;;31.82;45.60;100685.81;146612;594;46008;-71
2022/06/25 07:57:48;;;;;;;;;17.75;13.50;;;;;31.63;47.35;100685.63;146606;675;46018;-73
2022/06/25 08:00:40;;;;;;;;;17.00;15.25;;;;;31.45;47.32;100705.91;146608;579;46009;-74
2022/06/25 08:03:32;;;;;;;;;13.00;12.00;;;;;31.26;47.48;100703.84;146609;636;46018;-73
2022/06/25 08:06:25;;;;;;;;;14.00;12.25;;;;;31.00;47.72;100690.47;146607;574;46018;-74
2022/06/25 08:09:17;;;;;;;;;16.50;14.50;;;;;30.89;48.08;100690.81;146609;638;46010;-71
2022/06/25 08:12:10;;;;;;;;;15.25;14.00;;;;;30.83;48.90;100707.09;146607;595;46018;-76
2022/06/25 08:15:03;;;;;;;;;14.50;13.00;;;;;30.75;49.67;100701.09;146609;626;46019;-73
2022/06/25 08:17:56;;;;;;;;;16.00;13.25;;;;;30.78;49.52;100695.66;146606;577;46008;-72
2022/06/25 08:20:48;;;;;;;;;13.00;13.00;;;;;30.93;48.93;100686.25;146609;598;46018;-71
2022/06/25 08:37:07;;;;;;;;;12.75;12.75;;;;;30.97;47.91;100678.06;146606;585;46011;-79
2022/06/25 08:40:02;;;;;;;;;15.50;14.50;;;;;28.99;49.05;100331.47;146602;699;46008;-79
2022/06/25 08:42:54;;;;;;;;;14.25;13.75;;;;;31.05;47.84;100673.31;146606;590;46010;-79
2022/06/25 08:45:47;;;;;;;;;13.75;12.75;;;;;31.03;47.31;100668.94;146606;576;46008;-80
2022/06/25 08:48:40;;;;;;;;;16.50;14.25;;;;;31.06;46.77;100668.84;146607;609;47010;-77
2022/06/25 08:51:34;;;;;;;;;15.00;14.00;;;;;31.07;46.69;100673.25;146601;570;46921;-80
2022/06/25 08:54:27;;;;;;;;;14.50;13.50;;;;;31.12;46.78;100662.38;146606;580;46010;-79
2022/06/25 08:57:20;;;;;;;;;12.75;11.50;;;;;31.27;47.04;100668.06;146603;611;46010;-79
2022/06/25 09:00:13;;;;;;;;;14.50;13.25;;;;;31.47;47.14;100658.50;146606;573;46019;-79
2022/06/25 09:03:06;;;;;;;;;16.75;15.25;;;;;31.73;45.54;100665.56;146603;592;46008;-79
2022/06/25 09:05:58;;;;;;;;;18.25;15.50;;;;;31.93;45.52;100664.81;146602;581;46020;-80
2022/06/25 09:09:11;;;;;;;;;17.00;15.50;;;;;32.04;45.11;100659.06;146605;566;46008;-79
2022/06/25 09:12:08;;;;;;;;;15.75;14.50;;;;;31.68;46.25;100590.69;146606;691;46010;-80
2022/06/25 09:15:01;;;;;;;;;19.50;16.50;;;;;32.23;45.07;100668.13;146602;574;46921;-79
2022/06/25 09:17:54;;;;;;;;;14.50;14.50;;;;;32.34;44.85;100662.38;146605;573;46018;-79
2022/06/25 09:21:10;;;;;;;;;14.50;14.50;;;;;32.51;46.09;100667.94;146604;572;45019;-80
2022/06/25 09:24:03;;;;;;;;;13.50;11.00;;;;;32.65;44.56;100665.56;146607;598;45018;-79
2022/06/25 09:26:56;;;;;;;;;15.75;14.00;;;;;32.64;44.75;100671.00;146603;610;46018;-81
2022/06/25 09:29:49;;;;;;;;;19.25;15.50;;;;;32.47;43.97;100641.31;146606;591;46019;-79
2022/06/25 09:32:49;;;;;;;;;18.75;17.25;;;;;32.77;44.74;100664.16;146602;571;47008;-79
2022/06/25 09:35:46;;;;;;;;;17.25;15.50;;;;;32.71;43.69;100660.87;146605;569;46018;-79
2022/06/25 09:38:38;;;;;;;;;17.50;14.75;;;;;32.65;43.57;100665.56;146606;612;45042;-80
2022/06/25 09:41:30;;;;;;;;;13.00;13.00;;;;;32.52;43.72;100664.31;146604;609;46010;-81
2022/06/25 09:44:22;;;;;;;;;15.50;15.25;;;;;32.42;44.24;100661.09;146606;586;46008;-81
2022/06/25 09:47:14;;;;;;;;;15.00;13.25;;;;;32.28;44.58;100658.09;146602;659;46025;-81
2022/06/25 09:50:13;;;;;;;;;18.25;16.75;;;;;32.19;45.32;100659.34;146604;566;47008;-80
2022/06/25 09:53:05;;;;;;;;;19.00;18.00;;;;;32.17;44.27;100652.28;146607;585;46010;-79
2022/06/25 09:55:57;;;;;;;;;16.25;15.25;;;;;32.30;44.98;100655.34;146604;580;46018;-78
2022/06/25 09:58:51;;;;;;;;;17.00;16.75;;;;;32.49;43.31;100655.50;146607;644;46010;-78
2022/06/25 10:01:43;;;;;;;;;16.00;15.00;;;;;32.61;43.55;100661.25;146604;629;46010;-76
2022/06/25 10:04:36;;;;;;;;;15.00;15.00;;;;;32.64;42.21;100661.13;146601;644;47011;-84
2022/06/25 10:10:49;;;;;;;;;16.00;14.75;;;;;32.78;41.70;100649.81;146603;615;46010;-86
2022/06/25 10:13:41;;;;;;;;;14.25;13.25;;;;;32.85;41.62;100651.31;146606;585;46017;-83
2022/06/25 10:16:34;;;;;;;;;18.75;17.00;;;;;32.82;42.62;100634.44;146605;596;46018;-82
2022/06/25 10:19:29;;;;;;;;;18.00;18.00;;;;;33.05;41.85;100647.78;146607;617;46011;-82
2022/06/25 10:22:21;;;;;;;;;17.25;15.50;;;;;33.12;41.35;100645.72;146607;616;46010;-82
2022/06/25 10:25:16;;;;;;;;;15.25;15.00;;;;;33.12;38.92;100643.03;146603;660;47010;-84
2022/06/25 10:28:19;;;;;;;;;19.00;18.00;;;;;33.20;40.62;100642.69;146606;575;46011;-84
2022/06/25 10:31:16;;;;;;;;;15.25;15.25;;;;;33.21;40.36;100637.25;146605;569;46008;-80
2022/06/25 10:34:10;;;;;;;;;15.75;14.00;;;;;33.19;40.19;100640.94;146605;569;47010;-90
2022/06/25 10:37:03;;;;;;;;;21.00;15.75;;;;;33.26;40.80;100634.34;146605;617;46008;-80
2022/06/25 10:39:59;;;;;;;;;15.50;14.50;;;;;33.41;40.86;100630.97;146606;595;46010;-77
2022/06/25 10:43:10;;;;;;;;;14.25;14.00;;;;;33.47;38.84;100630.72;146603;595;46018;-79
2022/06/25 10:46:02;;;;;;;;;14.25;14.00;;;;;33.41;37.74;100628.28;146604;630;46010;-81
2022/06/25 10:49:16;;;;;;;;;15.50;15.25;;;;;32.36;38.60;100456.53;146606;572;45919;-77
2022/06/25 10:52:08;;;;;;;;;12.50;11.75;;;;;33.30;39.46;100619.81;146606;564;46018;-83
2022/06/25 10:55:05;;;;;;;;;17.25;14.75;;;;;33.25;38.16;100613.81;146603;646;46018;-80
2022/06/25 10:58:14;;;;;;;;;17.00;15.00;;;;;33.22;39.95;100609.44;146608;660;46010;-79
2022/06/25 11:01:07;;;;;;;;;14.75;14.00;;;;;33.20;38.49;100607.75;146604;570;47008;-79
2022/06/25 11:04:03;;;;;;;;;18.25;16.00;;;;;33.20;38.29;100605.94;146606;571;46018;-82
2022/06/25 11:06:55;;;;;;;;;18.50;16.75;;;;;33.30;40.41;100609.09;146605;575;46010;-80
2022/06/25 11:10:01;;;;;;;;;12.75;12.00;;;;;33.41;39.07;100614.84;146603;569;46010;-82
2022/06/25 11:12:54;;;;;;;;;17.75;16.75;;;;;33.45;40.30;100605.69;146606;708;46019;-83
2022/06/25 11:15:49;;;;;;;;;12.25;11.50;;;;;33.33;39.69;100603.56;146604;607;46018;-78
2022/06/25 11:18:59;;;;;;;;;13.50;12.25;;;;;33.14;40.04;100603.53;146601;698;46018;-79
2022/06/25 11:21:52;;;;;;;;;17.75;17.50;;;;;33.11;39.59;100595.59;146606;620;46010;-78
2022/06/25 11:31:28;;;;;;;;;17.75;16.25;;;;;33.43;38.46;100580.72;146606;572;46008;-81
2022/06/25 11:34:29;;;;;;;;;17.00;17.00;;;;;33.40;37.71;100580.88;146602;571;47010;-79
2022/06/25 11:37:22;;;;;;;;;19.25;16.75;;;;;33.26;38.52;100572.56;146607;632;46018;-80
2022/06/25 11:40:21;;;;;;;;;16.50;15.50;;;;;33.22;38.65;100576.31;146606;575;46010;-80
2022/06/25 11:43:14;;;;;;;;;18.25;15.75;;;;;33.00;37.31;100571.03;146605;609;46018;-81
2022/06/25 11:46:07;;;;;;;;;19.75;17.25;;;;;32.89;38.24;100563.41;146608;584;46008;-79
2022/06/25 11:48:59;;;;;;;;;14.25;14.00;;;;;32.91;37.76;100560.69;146604;617;46018;-81
2022/06/25 11:51:55;;;;;;;;;21.50;19.25;;;;;32.81;37.92;100562.91;146604;598;46018;-81
2022/06/25 11:54:49;;;;;;;;;15.50;15.00;;;;;32.91;38.72;100560.69;146607;578;46008;-79
2022/06/25 11:57:47;;;;;;;;;17.75;16.50;;;;;32.83;37.18;100566.37;146609;647;45019;-79
2022/06/25 12:00:39;;;;;;;;;16.75;14.50;;;;;32.79;38.17;100562.06;146606;626;46008;-77
2022/06/25 12:03:33;;;;;;;;;14.75;14.25;;;;;32.65;37.91;100579.66;146606;636;46010;-79
2022/06/25 12:06:27;;;;;;;;;15.75;13.25;;;;;32.76;39.60;100572.94;146605;688;46008;-80
2022/06/25 12:09:21;;;;;;;;;13.75;13.50;;;;;32.94;41.26;100563.22;146606;698;46018;-81
2022/06/25 12:12:13;;;;;;;;;13.25;13.25;;;;;33.13;41.19;100560.62;146605;583;46009;-81
2022/06/25 12:15:05;;;;;;;;;15.00;12.75;;;;;33.30;40.69;100560.72;146608;594;46012;-81
2022/06/25 12:18:08;;;;;;;;;15.50;13.25;;;;;33.35;40.96;100556.00;146604;576;46008;-81
2022/06/25 12:21:01;;;;;;;;;14.50;14.25;;;;;33.41;42.16;100552.16;146606;577;47010;-80
2022/06/25 12:24:03;;;;;;;;;15.75;15.00;;;;;33.47;42.31;100547.38;146606;563;46008;-80
2022/06/25 12:26:56;;;;;;;;;16.25;15.75;;;;;33.53;42.73;100541.75;146604;571;46019;-81
2022/06/25 12:29:53;;;;;;;;;15.00;14.25;;;;;33.55;42.30;100539.88;146603;627;46010;-80
2022/06/25 12:32:47;;;;;;;;;14.00;14.00;;;;;33.45;42.38;100546.56;146606;665;46018;-83
2022/06/25 12:35:44;;;;;;;;;16.25;15.25;;;;;33.40;41.66;100529.81;146601;573;46010;-80
2022/06/25 12:38:42;;;;;;;;;15.00;15.00;;;;;33.20;42.27;100540.59;146604;571;46010;-80
2022/06/25 12:41:53;;;;;;;;;18.00;17.00;;;;;33.17;43.00;100538.03;146605;603;46019;-80
2022/06/25 12:44:47;;;;;;;;;16.25;15.25;;;;;33.11;40.59;100544.56;146604;582;46018;-82
2022/06/25 12:47:44;;;;;;;;;15.00;14.75;;;;;33.15;42.16;100534.53;146602;608;46029;-78
2022/06/25 12:50:39;;;;;;;;;13.00;12.25;;;;;33.27;41.48;100528.59;146603;620;47010;-80
2022/06/25 12:53:32;;;;;;;;;15.25;14.50;;;;;33.44;41.74;100526.03;146608;591;46018;-80
2022/06/25 12:56:23;;;;;;;;;15.00;15.00;;;;;33.58;41.06;100520.00;146608;588;46011;-81
2022/06/25 12:59:16;;;;;;;;;14.00;13.00;;;;;33.67;40.11;100522.25;146604;584;46008;-80
2022/06/25 13:02:07;;;;;;;;;17.50;15.25;;;;;33.70;40.63;100519.41;146605;594;46013;-81
2022/06/25 13:05:00;;;;;;;;;15.00;13.00;;;;;33.71;40.07;100515.81;146604;587;46018;-80
2022/06/25 13:07:52;;;;;;;;;14.00;13.25;;;;;33.78;40.72;100517.25;146605;566;46010;-82
2022/06/25 13:10:46;;;;;;;;;14.75;14.25;;;;;33.83;39.48;100511.63;146601;655;46999;-81
2022/06/25 13:13:38;;;;;;;;;12.50;11.50;;;;;33.76;39.97;100505.69;146604;573;46018;-79
2022/06/25 13:16:30;;;;;;;;;17.25;13.75;;;;;33.77;39.34;100506.53;146600;646;47921;-80
2022/06/25 13:19:23;;;;;;;;;14.75;12.75;;;;;33.77;39.22;100514.63;146606;595;46010;-83
2022/06/25 13:22:15;;;;;;;;;12.50;11.50;;;;;33.72;38.13;100503.22;146603;605;46008;-82
2022/06/25 13:25:10;;;;;;;;;13.25;12.00;;;;;33.76;39.53;100507.50;146605;676;46012;-82
2022/06/25 13:28:02;;;;;;;;;16.75;13.25;;;;;33.79;39.59;100505.53;146600;715;46921;-85
2022/06/25 13:30:54;;;;;;;;;13.75;12.50;;;;;33.85;39.68;100508.88;146606;716;46012;-84
2022/06/25 13:33:46;;;;;;;;;18.00;14.50;;;;;33.86;38.75;100489.09;146601;594;47921;-70
2022/06/25 13:36:39;;;;;;;;;12.50;11.50;;;;;33.89;39.25;100495.19;146605;641;46010;-70
2022/06/25 13:39:31;;;;;;;;;14.00;13.50;;;;;33.82;38.87;100504.50;146601;569;46028;-71
2022/06/25 13:42:23;;;;;;;;;14.50;14.25;;;;;33.76;40.45;100504.81;146609;565;46010;-73